createdAt,value
2018-03-14T00:00:10.913Z,5.50
2018-03-14T00:02:39.325Z,6.60
2018-03-14T00:05:07.660Z,6.28
2018-03-14T00:07:36.041Z,5.97
2018-03-14T00:10:05.357Z,5.87
2018-03-14T00:12:34.655Z,7.07
2018-03-14T00:15:03.069Z,7.20
2018-03-14T00:17:31.341Z,6.28
2018-03-14T00:20:00.667Z,6.30
2018-03-14T00:22:33.974Z,6.80
2018-03-14T00:25:02.311Z,8.07
2018-03-14T00:27:31.343Z,6.57
2018-03-14T00:29:59.591Z,6.68
2018-03-14T00:32:27.891Z,7.20
2018-03-14T00:34:56.163Z,8.10
2018-03-14T00:37:24.813Z,6.95
2018-03-14T00:39:54.277Z,7.37
2018-03-14T00:42:22.900Z,5.60
2018-03-14T00:44:52.189Z,6.43
2018-03-14T00:47:20.894Z,6.65
2018-03-14T00:49:49.176Z,6.03
2018-03-14T00:52:17.499Z,8.40
2018-03-14T00:54:45.857Z,8.13
2018-03-14T00:57:14.258Z,6.40
2018-03-14T00:59:42.544Z,7.05
2018-03-14T01:02:10.792Z,6.78
2018-03-14T01:04:39.054Z,6.68
2018-03-14T01:07:07.430Z,7.25
2018-03-14T01:09:35.859Z,7.00
2018-03-14T01:12:04.110Z,7.05
2018-03-14T01:14:32.675Z,7.40
2018-03-14T01:17:00.923Z,7.62
2018-03-14T01:19:29.343Z,8.32
2018-03-14T01:21:57.604Z,7.55
2018-03-14T01:24:25.871Z,8.68
2018-03-14T01:26:54.142Z,9.30
2018-03-14T01:29:22.831Z,9.40
2018-03-14T01:31:51.106Z,10.20
2018-03-14T01:34:19.363Z,9.82
2018-03-14T01:36:47.650Z,8.43
2018-03-14T01:39:15.946Z,9.48
2018-03-14T01:41:44.233Z,10.40
2018-03-14T01:44:12.691Z,9.48
2018-03-14T01:46:40.963Z,10.20
2018-03-14T01:49:09.236Z,9.25
2018-03-14T01:51:37.485Z,9.68
2018-03-14T01:54:06.529Z,10.38
2018-03-14T01:56:34.832Z,11.52
2018-03-14T01:59:03.095Z,10.07
2018-03-14T02:01:31.361Z,9.73
2018-03-14T02:03:59.663Z,11.80
2018-03-14T02:06:28.793Z,10.75
2018-03-14T02:08:57.065Z,11.07
2018-03-14T02:11:25.345Z,13.02
2018-03-14T02:13:53.630Z,11.30
2018-03-14T02:16:21.910Z,12.27
2018-03-14T02:18:50.167Z,10.73
2018-03-14T02:21:18.507Z,11.07
2018-03-14T02:23:47.547Z,11.50
2018-03-14T02:26:15.817Z,11.68
2018-03-14T02:28:44.079Z,10.75
2018-03-14T02:31:12.322Z,10.07
2018-03-14T02:33:41.565Z,9.20
2018-03-14T02:36:09.824Z,10.80
2018-03-14T02:38:38.149Z,9.93
2018-03-14T02:41:06.408Z,9.65
2018-03-14T02:43:34.674Z,9.52
2018-03-14T02:46:02.920Z,9.90
2018-03-14T02:48:31.187Z,9.38
2018-03-14T02:50:59.454Z,10.15
2018-03-14T02:53:27.967Z,8.50
2018-03-14T02:55:56.232Z,8.98
2018-03-14T02:58:24.616Z,9.25
2018-03-14T03:00:53.074Z,7.57
2018-03-14T03:03:21.374Z,8.65
2018-03-14T03:05:49.731Z,8.43
2018-03-14T03:08:17.973Z,8.55
2018-03-14T03:10:47.010Z,7.22
2018-03-14T03:13:15.270Z,8.50
2018-03-14T03:15:43.566Z,8.23
2018-03-14T03:18:11.814Z,8.55
2018-03-14T03:20:40.082Z,9.05
2018-03-14T03:23:09.235Z,8.98
2018-03-14T03:25:37.490Z,9.43
2018-03-14T03:28:05.779Z,9.00
2018-03-14T03:30:34.034Z,8.38
2018-03-14T03:33:02.491Z,7.93
2018-03-14T03:35:31.509Z,8.98
2018-03-14T03:37:59.914Z,9.43
2018-03-14T03:40:28.190Z,7.87
2018-03-14T03:42:56.435Z,8.57
2018-03-14T03:45:24.694Z,8.05
2018-03-14T03:47:52.965Z,9.82
2018-03-14T03:50:21.238Z,8.88
2018-03-14T03:52:49.532Z,8.45
2018-03-14T03:55:17.817Z,8.50
2018-03-14T03:57:46.082Z,9.50
2018-03-14T04:00:14.422Z,9.02
2018-03-14T04:02:43.447Z,8.75
2018-03-14T04:05:11.698Z,8.07
2018-03-14T04:07:40.049Z,10.70
2018-03-14T04:10:08.832Z,9.18
2018-03-14T04:12:37.108Z,9.55
2018-03-14T04:15:05.362Z,9.00
2018-03-14T04:17:33.684Z,10.63
2018-03-14T04:20:02.710Z,9.45
2018-03-14T04:22:30.982Z,9.20
2018-03-14T04:24:59.299Z,9.23
2018-03-14T04:27:27.544Z,8.95
2018-03-14T04:29:55.968Z,8.77
2018-03-14T04:32:24.243Z,8.65
2018-03-14T04:34:52.519Z,9.23
2018-03-14T04:37:21.562Z,8.95
2018-03-14T04:39:49.823Z,7.87
2018-03-14T04:42:18.114Z,9.38
2018-03-14T04:44:46.484Z,8.75
2018-03-14T04:47:14.746Z,7.03
2018-03-14T04:49:43.004Z,8.40
2018-03-14T04:52:11.259Z,7.05
2018-03-14T04:54:40.403Z,7.70
2018-03-14T04:57:08.674Z,7.68
2018-03-14T04:59:36.915Z,7.32
2018-03-14T05:02:06.147Z,7.60
2018-03-14T05:04:34.435Z,6.55
2018-03-14T05:07:02.721Z,7.43
2018-03-14T05:09:30.969Z,6.95
2018-03-14T05:11:59.252Z,6.85
2018-03-14T05:14:27.631Z,6.65
2018-03-14T05:16:55.872Z,6.93
2018-03-14T05:19:24.866Z,5.85
2018-03-14T05:21:53.145Z,6.00
2018-03-14T05:24:21.443Z,6.50
2018-03-14T05:26:49.726Z,6.10
2018-03-14T05:29:17.995Z,5.90
2018-03-14T05:31:46.268Z,5.68
2018-03-14T05:34:14.543Z,6.57
2018-03-14T05:36:42.826Z,6.12
2018-03-14T05:39:11.090Z,6.15
2018-03-14T05:41:39.377Z,5.30
2018-03-14T05:44:07.642Z,6.00
2018-03-14T05:46:35.911Z,6.70
2018-03-14T05:49:04.364Z,8.07
2018-03-14T05:51:33.390Z,6.75
2018-03-14T05:56:37.236Z,8.75
2018-03-14T05:59:05.501Z,8.27
2018-03-14T06:01:33.773Z,8.00
2018-03-14T06:04:02.056Z,8.32
2018-03-14T06:06:30.311Z,8.57
2018-03-14T06:08:58.582Z,10.32
2018-03-14T06:11:26.938Z,9.85
2018-03-14T06:13:55.399Z,10.68
2018-03-14T06:16:24.468Z,10.05
2018-03-14T06:18:53.511Z,11.10
2018-03-14T06:21:21.815Z,10.75
2018-03-14T06:23:50.256Z,10.98
2018-03-14T06:26:18.572Z,10.13
2018-03-14T06:28:46.895Z,10.30
2018-03-14T06:31:15.973Z,11.63
2018-03-14T06:33:44.358Z,10.52
2018-03-14T06:36:13.158Z,12.32
2018-03-14T06:38:42.202Z,10.98
2018-03-14T06:41:10.538Z,11.32
2018-03-14T06:43:39.721Z,9.57
2018-03-14T06:46:08.030Z,9.05
2018-03-14T06:48:36.312Z,9.90
2018-03-14T06:51:04.937Z,7.97
2018-03-14T06:53:34.359Z,8.43
2018-03-14T06:56:02.674Z,7.93
2018-03-14T06:58:48.679Z,7.10
2018-03-14T07:04:36.664Z,10.35
2018-03-14T07:07:04.915Z,9.40
2018-03-14T07:09:33.218Z,10.98
2018-03-14T07:12:01.780Z,10.25
2018-03-14T07:14:30.204Z,10.70
2018-03-14T07:16:58.572Z,11.12
2018-03-14T07:19:27.815Z,9.80
2018-03-14T07:21:56.136Z,12.75
2018-03-14T07:24:25.184Z,13.48
2018-03-14T07:26:53.599Z,13.77
2018-03-14T07:29:22.649Z,15.65
2018-03-14T07:31:50.936Z,13.62
2018-03-14T07:34:19.425Z,14.52
2018-03-14T07:36:47.687Z,13.95
2018-03-14T07:39:15.984Z,15.43
2018-03-14T07:41:44.254Z,16.65
2018-03-14T07:44:12.546Z,15.60
2018-03-14T07:46:40.890Z,16.92
2018-03-14T07:49:09.176Z,18.62
2018-03-14T07:51:37.433Z,16.65
2018-03-14T07:54:05.703Z,15.95
2018-03-14T07:56:33.970Z,16.50
2018-03-14T07:59:02.256Z,19.77
2018-03-14T08:01:30.576Z,21.60
2018-03-14T08:03:59.524Z,17.85
2018-03-14T08:06:29.042Z,18.15
2018-03-14T08:08:57.807Z,12.65
2018-03-14T08:11:26.084Z,13.82
2018-03-14T08:13:54.428Z,14.20
2018-03-14T08:16:27.053Z,11.32
2018-03-14T08:18:55.504Z,12.52
2018-03-14T08:21:23.987Z,12.20
2018-03-14T08:23:53.249Z,12.73
2018-03-14T08:26:21.642Z,11.55
2018-03-14T08:28:50.769Z,13.50
2018-03-14T08:31:19.053Z,13.48
2018-03-14T08:33:47.619Z,11.93
2018-03-14T08:36:17.126Z,10.88
2018-03-14T08:38:46.922Z,13.43
2018-03-14T08:41:15.208Z,11.25
2018-03-14T08:43:43.492Z,10.68
2018-03-14T08:46:11.771Z,12.52
2018-03-14T08:48:40.062Z,12.65
2018-03-14T08:51:08.489Z,11.77
2018-03-14T08:53:37.523Z,11.85
2018-03-14T08:56:05.791Z,11.23
2018-03-14T08:58:34.062Z,11.52
2018-03-14T09:01:02.367Z,10.40
2018-03-14T09:03:30.620Z,12.52
2018-03-14T09:05:58.940Z,11.60
2018-03-14T09:08:27.990Z,11.80
2018-03-14T09:10:56.295Z,11.38
2018-03-14T09:13:24.609Z,10.77
2018-03-14T09:15:52.897Z,10.63
2018-03-14T09:18:21.203Z,10.82
2018-03-14T09:20:49.465Z,9.43
2018-03-14T09:23:17.840Z,9.32
2018-03-14T09:25:46.122Z,10.15
2018-03-14T09:28:14.376Z,10.80
2018-03-14T09:30:43.851Z,9.90
2018-03-14T09:33:12.924Z,9.35
2018-03-14T09:35:41.211Z,9.88
2018-03-14T09:38:09.495Z,9.40
2018-03-14T09:40:37.760Z,8.97
2018-03-14T09:43:06.820Z,8.40
2018-03-14T09:45:35.181Z,7.87
2018-03-14T09:48:03.451Z,8.50
2018-03-14T09:50:31.824Z,8.60
2018-03-14T09:53:00.107Z,8.20
2018-03-14T09:55:28.382Z,9.20
2018-03-14T09:57:56.660Z,8.90
2018-03-14T10:00:25.659Z,7.70
2018-03-14T10:02:54.134Z,8.27
2018-03-14T10:05:22.391Z,8.23
2018-03-14T10:07:51.476Z,7.15
2018-03-14T10:10:19.757Z,6.75
2018-03-14T10:12:49.954Z,7.95
2018-03-14T10:15:18.244Z,8.10
2018-03-14T10:17:46.567Z,7.68
2018-03-14T10:20:15.464Z,8.27
2018-03-14T10:22:43.863Z,8.50
2018-03-14T10:25:12.918Z,8.20
2018-03-14T10:27:41.205Z,8.77
2018-03-14T10:30:09.542Z,8.20
2018-03-14T10:32:37.822Z,7.43
2018-03-14T10:35:06.116Z,7.90
2018-03-14T10:37:38.451Z,8.05
2018-03-14T10:40:07.538Z,8.45
2018-03-14T10:42:35.819Z,7.95
2018-03-14T10:45:04.105Z,8.10
2018-03-14T10:47:32.396Z,8.93
2018-03-14T10:50:00.885Z,8.50
2018-03-14T10:52:29.182Z,9.23
2018-03-14T10:54:57.528Z,8.27
2018-03-14T10:57:25.994Z,8.32
2018-03-14T10:59:54.296Z,8.50
2018-03-14T11:02:22.558Z,8.07
2018-03-14T11:04:50.862Z,8.50
2018-03-14T11:07:19.131Z,8.82
2018-03-14T11:09:47.502Z,8.85
2018-03-14T11:12:15.757Z,8.27
2018-03-14T11:14:44.873Z,9.20
2018-03-14T11:17:13.150Z,9.40
2018-03-14T11:19:41.445Z,8.70
2018-03-14T11:22:09.887Z,8.15
2018-03-14T11:24:38.151Z,8.80
2018-03-14T11:27:06.455Z,8.63
2018-03-14T11:29:34.785Z,8.80
2018-03-14T11:32:03.387Z,9.43
2018-03-14T11:34:31.659Z,8.10
2018-03-14T11:36:59.956Z,8.70
2018-03-14T11:39:28.345Z,8.40
2018-03-14T11:41:56.759Z,8.93
2018-03-14T11:44:25.995Z,8.32
2018-03-14T11:46:54.287Z,9.48
2018-03-14T11:49:22.717Z,9.45
2018-03-14T11:51:51.002Z,8.57
2018-03-14T11:54:19.397Z,7.97
2018-03-14T11:56:47.702Z,8.52
2018-03-14T11:59:15.989Z,8.38
2018-03-14T12:01:44.325Z,8.80
2018-03-14T12:04:12.626Z,8.60
2018-03-14T12:06:40.939Z,9.02
2018-03-14T12:09:09.215Z,9.27
2018-03-14T12:11:38.355Z,7.87
2018-03-14T12:14:06.647Z,9.10
2018-03-14T12:16:34.939Z,8.63
2018-03-14T12:19:03.192Z,8.10
2018-03-14T12:21:31.557Z,8.13
2018-03-14T12:23:59.841Z,8.48
2018-03-14T12:26:28.163Z,8.40
2018-03-14T12:28:57.253Z,8.13
2018-03-14T12:31:26.290Z,8.40
2018-03-14T12:33:54.675Z,8.23
2018-03-14T12:36:23.005Z,7.87
2018-03-14T12:38:52.091Z,8.67
2018-03-14T12:41:20.394Z,8.77
2018-03-14T12:43:48.953Z,9.20
2018-03-14T12:46:18.000Z,8.77
2018-03-14T12:48:46.288Z,8.10
2018-03-14T12:51:14.664Z,7.53
2018-03-14T12:53:43.006Z,6.45
2018-03-14T12:56:11.408Z,7.37
2018-03-14T12:58:40.436Z,8.27
2018-03-14T13:01:08.740Z,8.02
2018-03-14T13:03:37.295Z,7.03
2018-03-14T13:06:05.672Z,8.30
2018-03-14T13:08:33.936Z,7.75
2018-03-14T13:11:02.262Z,7.65
2018-03-14T13:13:30.601Z,8.52
2018-03-14T13:15:59.668Z,6.78
2018-03-14T13:18:27.940Z,5.10
2018-03-14T13:20:56.254Z,7.80
2018-03-14T13:23:25.655Z,8.48
2018-03-14T13:25:54.138Z,7.70
2018-03-14T13:28:23.377Z,8.05
2018-03-14T13:30:51.726Z,6.62
2018-03-14T13:33:20.748Z,6.35
2018-03-14T13:35:49.070Z,7.40
2018-03-14T13:38:18.152Z,6.22
2018-03-14T13:40:47.398Z,6.00
2018-03-14T13:43:15.810Z,6.47
2018-03-14T13:45:44.164Z,5.57
2018-03-14T13:48:12.436Z,5.28
2018-03-14T13:50:40.806Z,6.57
2018-03-14T13:53:09.471Z,5.10
2018-03-14T13:55:39.010Z,6.72
2018-03-14T13:58:07.446Z,8.35
2018-03-14T14:00:36.541Z,6.15
2018-03-14T14:03:05.756Z,5.60
2018-03-14T14:05:34.084Z,5.75
2018-03-14T14:08:02.410Z,6.35
2018-03-14T14:10:30.980Z,6.87
2018-03-14T14:12:59.264Z,6.07
2018-03-14T14:15:28.384Z,7.57
2018-03-14T14:17:56.939Z,6.35
2018-03-14T14:20:25.405Z,6.05
2018-03-14T14:22:53.750Z,6.22
2018-03-14T14:25:23.764Z,5.82
2018-03-14T14:27:52.212Z,6.10
2018-03-14T14:30:21.152Z,6.22
2018-03-14T14:32:49.644Z,4.95
2018-03-14T14:35:18.796Z,5.53
2018-03-14T14:37:47.212Z,4.18
2018-03-14T14:40:16.344Z,4.18
2018-03-14T14:42:44.665Z,4.32
2018-03-14T14:45:13.362Z,4.65
2018-03-14T14:47:42.404Z,4.32
2018-03-14T14:50:10.752Z,5.37
2018-03-14T14:52:39.110Z,4.70
2018-03-14T14:55:08.175Z,4.43
2018-03-14T14:57:36.569Z,4.35
2018-03-14T15:00:04.916Z,4.62
2018-03-14T15:02:33.220Z,4.22
2018-03-14T15:05:01.552Z,4.65
2018-03-14T15:07:30.043Z,4.50
2018-03-14T15:09:58.423Z,3.08
2018-03-14T15:12:26.727Z,3.85
2018-03-14T15:14:54.988Z,6.00
2018-03-14T15:17:23.423Z,4.30
2018-03-14T15:19:51.892Z,4.65
2018-03-14T15:22:21.010Z,5.25
2018-03-14T15:24:49.302Z,5.10
2018-03-14T15:27:17.586Z,6.70
2018-03-14T15:29:46.042Z,5.25
2018-03-14T15:32:15.202Z,5.45
2018-03-14T15:34:44.244Z,5.07
2018-03-14T15:37:12.720Z,5.40
2018-03-14T15:39:41.466Z,5.07
2018-03-14T15:42:09.979Z,4.87
2018-03-14T15:44:40.331Z,5.43
2018-03-14T15:47:08.938Z,5.40
2018-03-14T15:49:37.391Z,5.12
2018-03-14T15:52:05.744Z,5.55
2018-03-14T15:54:34.300Z,4.37
2018-03-14T15:57:02.760Z,5.20
2018-03-14T15:59:31.188Z,4.90
2018-03-14T16:01:59.589Z,5.62
2018-03-14T16:04:28.067Z,4.32
2018-03-14T16:06:56.425Z,5.10
2018-03-14T16:09:24.717Z,5.22
2018-03-14T16:11:52.983Z,4.18
2018-03-14T16:14:21.348Z,4.70
2018-03-14T16:16:49.654Z,6.10
2018-03-14T16:19:17.993Z,4.70
2018-03-14T16:21:46.302Z,5.07
2018-03-14T16:24:14.670Z,4.03
2018-03-14T16:26:43.443Z,4.28
2018-03-14T16:29:11.912Z,5.18
2018-03-14T16:31:40.279Z,4.30
2018-03-14T16:34:08.576Z,3.85
2018-03-14T16:36:37.024Z,4.05
2018-03-14T16:39:06.100Z,5.20
2018-03-14T16:41:35.929Z,4.55
2018-03-14T16:44:05.057Z,4.05
2018-03-14T16:46:33.428Z,3.85
2018-03-14T16:49:01.994Z,4.60
2018-03-14T16:51:30.397Z,4.12
2018-03-14T16:53:58.796Z,4.30
2018-03-14T16:56:27.838Z,4.62
2018-03-14T16:58:56.172Z,4.55
2018-03-14T17:01:24.465Z,4.80
2018-03-14T17:03:52.717Z,4.32
2018-03-14T17:06:21.006Z,4.60
2018-03-14T17:08:50.151Z,4.07
2018-03-14T17:11:18.436Z,4.70
2018-03-14T17:13:46.714Z,4.53
2018-03-14T17:16:14.995Z,3.65
2018-03-14T17:18:43.268Z,4.62
2018-03-14T17:21:11.527Z,4.60
2018-03-14T17:23:39.827Z,4.55
2018-03-14T17:26:08.106Z,4.32
2018-03-14T17:28:36.547Z,4.37
2018-03-14T17:31:05.727Z,5.62
2018-03-14T17:33:34.764Z,4.30
2018-03-14T17:36:03.036Z,5.10
2018-03-14T17:38:31.435Z,4.68
2018-03-14T17:40:59.728Z,3.75
2018-03-14T17:43:28.013Z,4.50
2018-03-14T17:45:57.043Z,4.47
2018-03-14T17:48:25.363Z,4.55
2018-03-14T17:50:53.591Z,4.50
2018-03-14T17:53:21.889Z,5.15
2018-03-14T17:55:50.346Z,5.80
2018-03-14T17:58:18.624Z,5.30
2018-03-14T18:00:46.935Z,4.22
2018-03-14T18:03:15.242Z,4.82
2018-03-14T18:05:43.522Z,4.82
2018-03-14T18:08:11.819Z,4.87
2018-03-14T18:10:40.136Z,4.25
2018-03-14T18:13:08.407Z,4.50
2018-03-14T18:15:36.679Z,5.12
2018-03-14T18:18:05.002Z,4.50
2018-03-14T18:20:33.438Z,4.78
2018-03-14T18:23:02.521Z,4.60
2018-03-14T18:25:30.957Z,4.37
2018-03-14T18:27:59.220Z,5.43
2018-03-14T18:30:28.272Z,3.60
2018-03-14T18:32:56.577Z,4.53
2018-03-14T18:35:25.703Z,4.57
2018-03-14T18:37:53.955Z,4.30
2018-03-14T18:40:23.165Z,5.20
2018-03-14T18:42:51.601Z,5.10
2018-03-14T18:45:20.002Z,4.28
2018-03-14T18:47:49.052Z,4.50
2018-03-14T18:50:17.651Z,4.40
2018-03-14T18:52:45.955Z,4.65
2018-03-14T18:55:14.968Z,4.90
2018-03-14T18:57:43.583Z,4.22
2018-03-14T19:00:12.564Z,4.95
2018-03-14T19:02:40.844Z,4.60
2018-03-14T19:05:09.230Z,5.00
2018-03-14T19:07:38.119Z,4.47
2018-03-14T19:10:06.398Z,4.65
2018-03-14T19:12:34.648Z,6.35
2018-03-14T19:15:03.269Z,5.75
2018-03-14T19:17:31.539Z,4.95
2018-03-14T19:20:00.630Z,5.30
2018-03-14T19:22:28.936Z,6.07
2018-03-14T19:24:57.210Z,5.55
2018-03-14T19:27:26.345Z,5.47
2018-03-14T19:29:54.603Z,5.45
2018-03-14T19:32:22.882Z,4.87
2018-03-14T19:34:51.153Z,4.95
2018-03-14T19:37:19.548Z,6.57
2018-03-14T19:39:47.798Z,5.53
2018-03-14T19:42:16.821Z,4.40
2018-03-14T19:44:45.188Z,4.95
2018-03-14T19:47:13.475Z,4.72
2018-03-14T19:49:41.724Z,5.00
2018-03-14T19:52:10.049Z,4.53
2018-03-14T19:54:38.366Z,4.95
2018-03-14T19:57:07.408Z,5.03
2018-03-14T19:59:35.887Z,4.35
2018-03-14T20:02:04.182Z,4.72
2018-03-14T20:04:32.497Z,5.15
2018-03-14T20:07:00.815Z,4.80
2018-03-14T20:09:29.121Z,5.30
2018-03-14T20:11:57.544Z,5.35
2018-03-14T20:14:25.855Z,5.95
2018-03-14T20:16:54.218Z,5.82
2018-03-14T20:19:22.540Z,5.12
2018-03-14T20:21:51.630Z,5.18
2018-03-14T20:24:19.967Z,6.72
2018-03-14T20:26:49.060Z,6.62
2018-03-14T20:29:17.368Z,6.65
2018-03-14T20:31:46.477Z,7.80
2018-03-14T20:34:14.793Z,7.28
2018-03-14T20:36:43.362Z,8.57
2018-03-14T20:39:11.733Z,7.87
2018-03-14T20:41:41.104Z,8.70
2018-03-14T20:44:09.800Z,8.55
2018-03-14T20:46:38.850Z,8.13
2018-03-14T20:49:07.270Z,8.68
2018-03-14T20:51:36.319Z,8.63
2018-03-14T20:54:04.876Z,9.27
2018-03-14T20:56:33.388Z,7.62
2018-03-14T20:59:03.051Z,8.07
2018-03-14T21:01:31.425Z,7.45
2018-03-14T21:03:59.864Z,8.70
2018-03-14T21:06:28.549Z,8.68
2018-03-14T21:08:56.902Z,7.00
2018-03-14T21:11:25.233Z,6.78
2018-03-14T21:13:53.652Z,7.85
2018-03-14T21:16:22.138Z,7.60
2018-03-14T21:18:50.777Z,8.10
2018-03-14T21:21:19.932Z,8.40
2018-03-14T21:23:48.231Z,8.00
2018-03-14T21:26:16.580Z,6.90
2018-03-14T21:28:44.832Z,7.65
2018-03-14T21:31:13.192Z,8.32
2018-03-14T21:33:42.242Z,8.35
2018-03-14T21:36:10.562Z,7.87
2018-03-14T21:38:39.517Z,7.65
2018-03-14T21:41:09.418Z,8.10
2018-03-14T21:43:37.708Z,7.72
2018-03-14T21:46:06.862Z,8.05
2018-03-14T21:48:35.188Z,6.75
2018-03-14T21:51:03.474Z,7.45
2018-03-14T21:53:32.561Z,8.30
2018-03-14T21:56:01.622Z,8.30
2018-03-14T21:58:30.039Z,8.50
2018-03-14T22:00:59.147Z,7.70
2018-03-14T22:03:28.194Z,8.32
2018-03-14T22:05:57.060Z,8.07
2018-03-14T22:08:25.518Z,8.02
2018-03-14T22:10:55.570Z,8.30
2018-03-14T22:13:23.848Z,7.35
2018-03-14T22:15:52.131Z,7.75
2018-03-14T22:18:20.421Z,7.07
2018-03-14T22:20:49.683Z,8.05
2018-03-14T22:23:17.943Z,7.75
2018-03-14T22:25:46.225Z,8.00
2018-03-14T22:28:14.469Z,6.97
2018-03-14T22:30:42.749Z,7.85
2018-03-14T22:33:11.038Z,8.23
2018-03-14T22:35:39.299Z,7.82
2018-03-14T22:38:07.663Z,9.25
2018-03-14T22:40:36.691Z,7.28
2018-03-14T22:43:04.973Z,6.97
2018-03-14T22:45:33.446Z,8.00
2018-03-14T22:48:01.831Z,7.95
2018-03-14T22:50:30.104Z,8.18
2018-03-14T22:52:58.379Z,7.35
2018-03-14T22:55:27.550Z,7.50
2018-03-14T22:57:56.053Z,8.98
2018-03-14T23:00:24.572Z,7.40
2018-03-14T23:02:52.947Z,7.35
2018-03-14T23:05:21.432Z,7.72
2018-03-14T23:07:49.983Z,7.62
2018-03-14T23:10:18.423Z,7.53
2018-03-14T23:12:46.721Z,7.47
2018-03-14T23:15:15.784Z,6.90
2018-03-14T23:17:44.125Z,7.28
2018-03-14T23:20:13.419Z,6.95
2018-03-14T23:22:41.754Z,7.43
2018-03-14T23:25:10.037Z,8.52
2018-03-14T23:27:38.661Z,7.78
2018-03-14T23:30:07.176Z,8.38
2018-03-14T23:32:35.480Z,8.57
2018-03-14T23:35:05.235Z,8.20
2018-03-14T23:37:35.522Z,7.35
2018-03-14T23:40:05.254Z,7.22
2018-03-14T23:42:33.620Z,8.02
2018-03-14T23:45:02.721Z,8.60
2018-03-14T23:47:31.093Z,9.18
2018-03-14T23:49:59.359Z,9.55
2018-03-14T23:52:27.895Z,9.50
2018-03-14T23:54:56.368Z,9.25
2018-03-14T23:57:25.713Z,8.02
2018-03-14T23:59:59.212Z,9.27
